sensor_id;sensor_type;location;lat;lon;timestamp;P1;P2;P0
27143;PMS1003;14672;50.250;8.312;2023-03-01T00:01:09;27.00;25.00;10.50
27143;PMS1003;14672;50.250;8.312;2023-03-01T00:03:39;33.00;26.00;12.50
27143;PMS1003;14672;50.250;8.312;2023-03-01T00:06:05;36.00;27.20;14.40
27143;PMS1003;14672;50.250;8.312;2023-03-01T00:08:31;30.80;27.20;12.00
27143;PMS1003;14672;50.250;8.312;2023-03-01T00:13:40;25.00;24.00;12.50
27143;PMS1003;14672;50.250;8.312;2023-03-01T00:16:09;30.00;28.00;16.00
27143;PMS1003;14672;50.250;8.312;2023-03-01T00:18:42;36.40;32.40;12.40
27143;PMS1003;14672;50.250;8.312;2023-03-01T00:21:08;28.00;26.50;14.00
27143;PMS1003;14672;50.250;8.312;2023-03-01T00:23:34;41.00;32.00;13.50
27143;PMS1003;14672;50.250;8.312;2023-03-01T00:26:02;31.00;26.50;13.50
27143;PMS1003;14672;50.250;8.312;2023-03-01T00:28:32;28.50;24.00;11.50
27143;PMS1003;14672;50.250;8.312;2023-03-01T00:31:08;34.00;31.00;12.50
27143;PMS1003;14672;50.250;8.312;2023-03-01T00:33:39;28.80;26.00;14.00
27143;PMS1003;14672;50.250;8.312;2023-03-01T00:36:06;31.00;27.50;13.50
27143;PMS1003;14672;50.250;8.312;2023-03-01T00:38:34;32.00;30.00;12.00
27143;PMS1003;14672;50.250;8.312;2023-03-01T00:41:02;34.00;30.50;14.00
27143;PMS1003;14672;50.250;8.312;2023-03-01T00:43:30;30.00;28.00;12.00
27143;PMS1003;14672;50.250;8.312;2023-03-01T00:46:02;30.00;29.50;16.00
27143;PMS1003;14672;50.250;8.312;2023-03-01T00:48:31;43.60;38.00;18.00
27143;PMS1003;14672;50.250;8.312;2023-03-01T00:51:03;32.50;27.50;13.50
27143;PMS1003;14672;50.250;8.312;2023-03-01T00:53:34;37.50;32.00;14.50
27143;PMS1003;14672;50.250;8.312;2023-03-01T00:56:01;33.20;28.40;14.00
27143;PMS1003;14672;50.250;8.312;2023-03-01T00:58:28;30.50;29.00;14.00
27143;PMS1003;14672;50.250;8.312;2023-03-01T01:00:54;27.00;25.00;14.00
27143;PMS1003;14672;50.250;8.312;2023-03-01T01:03:20;38.00;30.00;12.00
27143;PMS1003;14672;50.250;8.312;2023-03-01T01:05:47;42.50;34.00;17.00
27143;PMS1003;14672;50.250;8.312;2023-03-01T01:08:12;32.00;26.00;11.33
27143;PMS1003;14672;50.250;8.312;2023-03-01T01:10:38;31.33;30.00;13.33
27143;PMS1003;14672;50.250;8.312;2023-03-01T01:13:04;26.67;23.33;12.67
27143;PMS1003;14672;50.250;8.312;2023-03-01T01:15:33;30.00;27.50;13.00
27143;PMS1003;14672;50.250;8.312;2023-03-01T01:17:59;32.00;24.00;12.00
27143;PMS1003;14672;50.250;8.312;2023-03-01T01:20:26;32.00;24.40;12.00
27143;PMS1003;14672;50.250;8.312;2023-03-01T01:22:52;31.50;29.00;16.00
27143;PMS1003;14672;50.250;8.312;2023-03-01T01:25:18;26.00;22.67;12.00
27143;PMS1003;14672;50.250;8.312;2023-03-01T01:27:44;35.60;31.20;18.00
27143;PMS1003;14672;50.250;8.312;2023-03-01T01:30:10;25.00;23.00;12.00
27143;PMS1003;14672;50.250;8.312;2023-03-01T01:32:36;33.60;31.20;12.00
27143;PMS1003;14672;50.250;8.312;2023-03-01T01:35:02;37.00;29.00;13.00
27143;PMS1003;14672;50.250;8.312;2023-03-01T01:37:28;28.40;24.40;12.00
27143;PMS1003;14672;50.250;8.312;2023-03-01T01:39:57;28.40;27.20;13.60
27143;PMS1003;14672;50.250;8.312;2023-03-01T01:42:24;36.00;31.60;15.20
27143;PMS1003;14672;50.250;8.312;2023-03-01T01:47:54;32.00;28.80;12.40
27143;PMS1003;14672;50.250;8.312;2023-03-01T01:50:27;29.60;29.20;12.80
27143;PMS1003;14672;50.250;8.312;2023-03-01T01:53:02;32.00;28.80;14.80
27143;PMS1003;14672;50.250;8.312;2023-03-01T01:55:36;27.20;25.60;10.00
27143;PMS1003;14672;50.250;8.312;2023-03-01T01:58:06;32.00;25.20;10.40
27143;PMS1003;14672;50.250;8.312;2023-03-01T02:00:35;34.00;26.00;11.20
27143;PMS1003;14672;50.250;8.312;2023-03-01T02:03:10;35.60;28.80;12.80
27143;PMS1003;14672;50.250;8.312;2023-03-01T02:06:07;30.80;26.40;10.40
27143;PMS1003;14672;50.250;8.312;2023-03-01T02:08:38;34.80;33.20;18.00
27143;PMS1003;14672;50.250;8.312;2023-03-01T02:11:06;32.00;27.60;14.40
27143;PMS1003;14672;50.250;8.312;2023-03-01T02:13:35;27.20;26.80;10.40
27143;PMS1003;14672;50.250;8.312;2023-03-01T02:16:02;32.40;30.40;15.60
27143;PMS1003;14672;50.250;8.312;2023-03-01T02:18:38;25.60;24.80;12.80
27143;PMS1003;14672;50.250;8.312;2023-03-01T02:21:08;28.00;26.40;13.20
27143;PMS1003;14672;50.250;8.312;2023-03-01T02:24:25;31.60;28.40;11.60
27143;PMS1003;14672;50.250;8.312;2023-03-01T02:27:05;26.40;22.00;14.00
27143;PMS1003;14672;50.250;8.312;2023-03-01T02:29:31;29.50;27.50;15.50
27143;PMS1003;14672;50.250;8.312;2023-03-01T02:31:58;40.80;35.60;17.60
27143;PMS1003;14672;50.250;8.312;2023-03-01T02:34:27;106.00;82.00;46.00
27143;PMS1003;14672;50.250;8.312;2023-03-01T02:37:03;84.50;65.50;39.50
27143;PMS1003;14672;50.250;8.312;2023-03-01T02:39:42;63.60;50.80;24.40
27143;PMS1003;14672;50.250;8.312;2023-03-01T02:42:14;48.40;41.20;20.00
27143;PMS1003;14672;50.250;8.312;2023-03-01T02:44:46;41.60;34.00;18.00
27143;PMS1003;14672;50.250;8.312;2023-03-01T02:47:14;36.40;33.20;16.40
27143;PMS1003;14672;50.250;8.312;2023-03-01T02:49:40;57.50;45.50;24.00
27143;PMS1003;14672;50.250;8.312;2023-03-01T02:55:18;64.00;50.40;25.60
27143;PMS1003;14672;50.250;8.312;2023-03-01T02:57:45;52.50;44.00;27.50
27143;PMS1003;14672;50.250;8.312;2023-03-01T03:00:17;51.20;42.40;22.40
27143;PMS1003;14672;50.250;8.312;2023-03-01T03:02:50;39.20;36.40;20.00
27143;PMS1003;14672;50.250;8.312;2023-03-01T03:05:18;35.60;34.80;16.80
27143;PMS1003;14672;50.250;8.312;2023-03-01T03:07:53;42.00;34.80;16.00
27143;PMS1003;14672;50.250;8.312;2023-03-01T03:10:23;34.00;33.20;16.00
27143;PMS1003;14672;50.250;8.312;2023-03-01T03:13:00;42.00;36.80;14.80
27143;PMS1003;14672;50.250;8.312;2023-03-01T03:15:29;30.00;30.00;13.60
27143;PMS1003;14672;50.250;8.312;2023-03-01T03:17:56;32.40;31.60;16.80
27143;PMS1003;14672;50.250;8.312;2023-03-01T03:20:25;33.20;28.80;13.20
27143;PMS1003;14672;50.250;8.312;2023-03-01T03:22:53;38.00;33.60;15.60
27143;PMS1003;14672;50.250;8.312;2023-03-01T03:25:21;39.20;34.40;14.40
27143;PMS1003;14672;50.250;8.312;2023-03-01T03:27:48;29.20;27.60;14.00
27143;PMS1003;14672;50.250;8.312;2023-03-01T03:30:21;42.40;37.60;18.40
27143;PMS1003;14672;50.250;8.312;2023-03-01T03:32:55;41.20;38.40;14.40
27143;PMS1003;14672;50.250;8.312;2023-03-01T03:35:30;40.80;32.80;15.20
27143;PMS1003;14672;50.250;8.312;2023-03-01T03:38:05;42.40;35.60;15.60
27143;PMS1003;14672;50.250;8.312;2023-03-01T03:40:41;41.20;33.20;16.00
27143;PMS1003;14672;50.250;8.312;2023-03-01T03:43:26;32.00;28.00;14.40
27143;PMS1003;14672;50.250;8.312;2023-03-01T03:45:52;43.00;33.50;16.00
27143;PMS1003;14672;50.250;8.312;2023-03-01T03:48:18;44.40;37.60;16.40
27143;PMS1003;14672;50.250;8.312;2023-03-01T03:50:49;36.80;34.40;16.40
27143;PMS1003;14672;50.250;8.312;2023-03-01T03:53:21;35.60;34.00;15.60
27143;PMS1003;14672;50.250;8.312;2023-03-01T03:55:50;38.40;34.80;14.40
27143;PMS1003;14672;50.250;8.312;2023-03-01T03:58:17;40.40;35.20;15.20
27143;PMS1003;14672;50.250;8.312;2023-03-01T04:00:46;46.00;40.80;18.00
27143;PMS1003;14672;50.250;8.312;2023-03-01T04:03:15;31.60;28.00;10.80
27143;PMS1003;14672;50.250;8.312;2023-03-01T04:05:43;43.20;36.40;16.40
27143;PMS1003;14672;50.250;8.312;2023-03-01T04:08:10;38.80;36.80;19.20
27143;PMS1003;14672;50.250;8.312;2023-03-01T04:10:40;38.00;31.20;15.20
27143;PMS1003;14672;50.250;8.312;2023-03-01T04:13:10;39.60;33.20;15.20
27143;PMS1003;14672;50.250;8.312;2023-03-01T04:15:40;37.60;30.80;13.60
27143;PMS1003;14672;50.250;8.312;2023-03-01T04:18:08;35.20;33.60;14.40
27143;PMS1003;14672;50.250;8.312;2023-03-01T04:20:37;36.80;33.20;15.60
27143;PMS1003;14672;50.250;8.312;2023-03-01T04:23:07;44.00;38.40;20.00
27143;PMS1003;14672;50.250;8.312;2023-03-01T04:25:48;37.20;35.20;16.00
27143;PMS1003;14672;50.250;8.312;2023-03-01T04:28:23;38.80;32.80;14.00
27143;PMS1003;14672;50.250;8.312;2023-03-01T04:31:14;28.40;26.80;12.40
27143;PMS1003;14672;50.250;8.312;2023-03-01T04:33:44;41.20;38.40;17.20
27143;PMS1003;14672;50.250;8.312;2023-03-01T04:36:20;34.40;32.40;16.00
27143;PMS1003;14672;50.250;8.312;2023-03-01T04:38:49;37.20;35.20;14.80
27143;PMS1003;14672;50.250;8.312;2023-03-01T04:41:16;48.40;37.20;18.40
27143;PMS1003;14672;50.250;8.312;2023-03-01T04:43:44;37.20;34.80;13.60
27143;PMS1003;14672;50.250;8.312;2023-03-01T04:46:11;46.80;37.60;18.00
27143;PMS1003;14672;50.250;8.312;2023-03-01T04:48:40;53.20;48.40;22.40
27143;PMS1003;14672;50.250;8.312;2023-03-01T04:51:08;46.40;41.60;23.20
27143;PMS1003;14672;50.250;8.312;2023-03-01T04:53:34;48.80;43.60;23.60
27143;PMS1003;14672;50.250;8.312;2023-03-01T04:56:03;46.80;40.00;18.80
27143;PMS1003;14672;50.250;8.312;2023-03-01T04:58:29;49.20;46.80;20.40
27143;PMS1003;14672;50.250;8.312;2023-03-01T05:00:56;47.20;44.00;18.00
27143;PMS1003;14672;50.250;8.312;2023-03-01T05:03:22;44.00;38.50;20.00
27143;PMS1003;14672;50.250;8.312;2023-03-01T05:05:48;45.00;40.00;18.00
27143;PMS1003;14672;50.250;8.312;2023-03-01T05:08:16;42.40;38.40;18.40
27143;PMS1003;14672;50.250;8.312;2023-03-01T05:10:46;48.00;37.60;17.60
27143;PMS1003;14672;50.250;8.312;2023-03-01T05:13:18;47.20;35.60;17.20
27143;PMS1003;14672;50.250;8.312;2023-03-01T05:15:59;40.00;38.40;18.80
27143;PMS1003;14672;50.250;8.312;2023-03-01T05:18:27;39.20;36.80;16.80
27143;PMS1003;14672;50.250;8.312;2023-03-01T05:20:55;42.00;34.80;16.00
27143;PMS1003;14672;50.250;8.312;2023-03-01T05:23:40;36.80;33.60;15.60
27143;PMS1003;14672;50.250;8.312;2023-03-01T05:26:06;40.00;37.50;17.50
27143;PMS1003;14672;50.250;8.312;2023-03-01T05:28:33;39.20;33.60;14.00
27143;PMS1003;14672;50.250;8.312;2023-03-01T05:30:59;37.60;31.60;14.40
27143;PMS1003;14672;50.250;8.312;2023-03-01T05:33:26;36.80;32.40;18.00
27143;PMS1003;14672;50.250;8.312;2023-03-01T05:35:52;40.40;36.00;18.00
27143;PMS1003;14672;50.250;8.312;2023-03-01T05:38:19;34.50;33.00;14.50
27143;PMS1003;14672;50.250;8.312;2023-03-01T05:40:47;43.20;35.60;18.00
27143;PMS1003;14672;50.250;8.312;2023-03-01T05:43:14;36.80;32.00;15.60
27143;PMS1003;14672;50.250;8.312;2023-03-01T05:45:42;43.60;36.40;18.00
27143;PMS1003;14672;50.250;8.312;2023-03-01T05:48:09;37.60;34.00;17.60
27143;PMS1003;14672;50.250;8.312;2023-03-01T05:50:40;39.20;36.80;19.20
27143;PMS1003;14672;50.250;8.312;2023-03-01T05:53:13;44.00;38.80;18.00
27143;PMS1003;14672;50.250;8.312;2023-03-01T05:55:43;34.80;31.20;16.00
27143;PMS1003;14672;50.250;8.312;2023-03-01T05:58:11;37.20;37.20;18.80
27143;PMS1003;14672;50.250;8.312;2023-03-01T06:00:40;42.80;36.40;18.00
27143;PMS1003;14672;50.250;8.312;2023-03-01T06:03:09;46.40;40.40;19.20
27143;PMS1003;14672;50.250;8.312;2023-03-01T06:05:38;48.80;44.00;24.00
27143;PMS1003;14672;50.250;8.312;2023-03-01T06:08:04;54.00;41.20;19.20
27143;PMS1003;14672;50.250;8.312;2023-03-01T06:10:30;40.00;36.80;18.80
27143;PMS1003;14672;50.250;8.312;2023-03-01T06:12:56;43.50;38.00;18.50
27143;PMS1003;14672;50.250;8.312;2023-03-01T06:15:23;46.80;40.40;19.60
27143;PMS1003;14672;50.250;8.312;2023-03-01T06:17:49;45.20;40.40;18.40
27143;PMS1003;14672;50.250;8.312;2023-03-01T06:20:20;34.00;33.60;17.20
27143;PMS1003;14672;50.250;8.312;2023-03-01T06:22:48;36.80;33.60;16.00
27143;PMS1003;14672;50.250;8.312;2023-03-01T06:25:19;42.40;35.20;16.00
27143;PMS1003;14672;50.250;8.312;2023-03-01T06:27:47;43.60;38.40;18.40
27143;PMS1003;14672;50.250;8.312;2023-03-01T06:30:14;50.80;47.60;20.00
27143;PMS1003;14672;50.250;8.312;2023-03-01T06:32:43;64.00;57.20;28.40
27143;PMS1003;14672;50.250;8.312;2023-03-01T06:35:10;64.00;59.20;33.60
27143;PMS1003;14672;50.250;8.312;2023-03-01T06:37:37;60.00;53.60;29.20
27143;PMS1003;14672;50.250;8.312;2023-03-01T06:40:04;44.00;42.80;24.80
27143;PMS1003;14672;50.250;8.312;2023-03-01T06:42:36;50.40;44.00;21.60
27143;PMS1003;14672;50.250;8.312;2023-03-01T06:45:04;48.40;36.80;17.20
27143;PMS1003;14672;50.250;8.312;2023-03-01T06:47:32;56.00;44.40;22.00
27143;PMS1003;14672;50.250;8.312;2023-03-01T06:50:02;38.40;35.60;17.60
27143;PMS1003;14672;50.250;8.312;2023-03-01T06:52:28;45.20;37.60;18.00
27143;PMS1003;14672;50.250;8.312;2023-03-01T06:54:54;44.00;42.80;21.60
27143;PMS1003;14672;50.250;8.312;2023-03-01T06:57:20;41.50;36.50;15.50
27143;PMS1003;14672;50.250;8.312;2023-03-01T06:59:46;46.40;39.60;21.20
27143;PMS1003;14672;50.250;8.312;2023-03-01T07:02:13;48.00;43.20;20.40
27143;PMS1003;14672;50.250;8.312;2023-03-01T07:04:40;38.40;33.60;16.80
27143;PMS1003;14672;50.250;8.312;2023-03-01T07:07:06;46.00;38.00;19.60
27143;PMS1003;14672;50.250;8.312;2023-03-01T07:09:32;51.00;44.50;19.00
27143;PMS1003;14672;50.250;8.312;2023-03-01T07:11:58;47.00;44.00;22.00
27143;PMS1003;14672;50.250;8.312;2023-03-01T07:14:24;40.50;35.00;18.00
27143;PMS1003;14672;50.250;8.312;2023-03-01T07:16:51;43.20;40.00;20.00
27143;PMS1003;14672;50.250;8.312;2023-03-01T07:19:20;46.00;41.60;21.20
27143;PMS1003;14672;50.250;8.312;2023-03-01T07:21:46;57.60;44.80;22.40
27143;PMS1003;14672;50.250;8.312;2023-03-01T07:24:12;53.20;43.20;20.00
27143;PMS1003;14672;50.250;8.312;2023-03-01T07:26:38;49.50;36.00;18.00
27143;PMS1003;14672;50.250;8.312;2023-03-01T07:29:05;42.00;38.00;19.00
27143;PMS1003;14672;50.250;8.312;2023-03-01T07:31:34;45.60;39.20;20.00
27143;PMS1003;14672;50.250;8.312;2023-03-01T07:34:00;55.50;47.00;21.00
27143;PMS1003;14672;50.250;8.312;2023-03-01T07:36:25;51.50;44.50;22.50
27143;PMS1003;14672;50.250;8.312;2023-03-01T07:38:51;58.00;50.00;24.00
27143;PMS1003;14672;50.250;8.312;2023-03-01T07:41:17;49.60;43.20;22.00
27143;PMS1003;14672;50.250;8.312;2023-03-01T07:43:43;48.00;40.00;18.00
27143;PMS1003;14672;50.250;8.312;2023-03-01T07:46:09;53.00;42.50;21.50
27143;PMS1003;14672;50.250;8.312;2023-03-01T07:48:35;40.50;37.50;18.00
27143;PMS1003;14672;50.250;8.312;2023-03-01T07:51:02;43.50;38.00;21.50
27143;PMS1003;14672;50.250;8.312;2023-03-01T07:53:30;50.00;42.00;20.00
27143;PMS1003;14672;50.250;8.312;2023-03-01T07:56:00;55.60;42.80;18.00
27143;PMS1003;14672;50.250;8.312;2023-03-01T07:58:37;41.60;38.00;19.20
27143;PMS1003;14672;50.250;8.312;2023-03-01T08:01:06;42.00;39.20;19.60
27143;PMS1003;14672;50.250;8.312;2023-03-01T08:03:38;52.00;41.60;20.00
27143;PMS1003;14672;50.250;8.312;2023-03-01T08:06:05;47.50;37.50;18.00
27143;PMS1003;14672;50.250;8.312;2023-03-01T08:08:34;37.60;34.00;16.80
27143;PMS1003;14672;50.250;8.312;2023-03-01T08:11:01;38.40;31.60;14.80
27143;PMS1003;14672;50.250;8.312;2023-03-01T08:13:29;38.00;35.20;17.60
27143;PMS1003;14672;50.250;8.312;2023-03-01T08:16:02;46.80;37.60;21.60
27143;PMS1003;14672;50.250;8.312;2023-03-01T08:18:36;45.20;38.40;18.40
27143;PMS1003;14672;50.250;8.312;2023-03-01T08:21:03;44.40;32.40;16.80
27143;PMS1003;14672;50.250;8.312;2023-03-01T08:23:31;39.20;36.80;19.20
27143;PMS1003;14672;50.250;8.312;2023-03-01T08:26:19;36.80;34.40;19.60
27143;PMS1003;14672;50.250;8.312;2023-03-01T08:28:46;34.50;31.50;16.50
27143;PMS1003;14672;50.250;8.312;2023-03-01T08:31:15;44.40;32.80;16.40
27143;PMS1003;14672;50.250;8.312;2023-03-01T08:33:45;50.00;46.80;21.20
27143;PMS1003;14672;50.250;8.312;2023-03-01T08:36:16;40.80;37.20;20.00
27143;PMS1003;14672;50.250;8.312;2023-03-01T08:38:43;49.20;45.60;22.40
27143;PMS1003;14672;50.250;8.312;2023-03-01T08:41:09;43.20;34.80;16.80
27143;PMS1003;14672;50.250;8.312;2023-03-01T08:43:35;41.20;38.80;20.00
27143;PMS1003;14672;50.250;8.312;2023-03-01T08:46:00;46.00;40.00;19.00
27143;PMS1003;14672;50.250;8.312;2023-03-01T08:48:27;44.50;39.00;20.00
27143;PMS1003;14672;50.250;8.312;2023-03-01T08:50:54;51.20;47.20;19.20
27143;PMS1003;14672;50.250;8.312;2023-03-01T08:53:20;46.80;40.40;17.60
27143;PMS1003;14672;50.250;8.312;2023-03-01T08:55:46;41.50;34.00;18.00
27143;PMS1003;14672;50.250;8.312;2023-03-01T08:58:11;43.00;38.50;18.00
27143;PMS1003;14672;50.250;8.312;2023-03-01T09:00:37;43.50;38.50;22.00
27143;PMS1003;14672;50.250;8.312;2023-03-01T09:03:03;50.00;41.20;20.00
27143;PMS1003;14672;50.250;8.312;2023-03-01T09:05:33;50.00;45.50;22.00
27143;PMS1003;14672;50.250;8.312;2023-03-01T09:07:59;47.20;42.80;21.60
27143;PMS1003;14672;50.250;8.312;2023-03-01T09:10:25;47.00;41.50;20.50
27143;PMS1003;14672;50.250;8.312;2023-03-01T09:12:51;39.50;33.00;17.50
27143;PMS1003;14672;50.250;8.312;2023-03-01T09:15:17;42.00;39.20;19.20
27143;PMS1003;14672;50.250;8.312;2023-03-01T09:17:42;43.00;40.50;18.00
27143;PMS1003;14672;50.250;8.312;2023-03-01T09:20:09;44.40;42.40;20.80
27143;PMS1003;14672;50.250;8.312;2023-03-01T09:22:35;45.60;39.20;23.20
27143;PMS1003;14672;50.250;8.312;2023-03-01T09:25:01;48.67;45.33;21.33
27143;PMS1003;14672;50.250;8.312;2023-03-01T09:27:27;48.67;41.33;22.00
27143;PMS1003;14672;50.250;8.312;2023-03-01T09:29:53;47.33;45.67;24.33
27143;PMS1003;14672;50.250;8.312;2023-03-01T09:32:21;51.00;46.50;24.75
27143;PMS1003;14672;50.250;8.312;2023-03-01T09:34:48;62.33;49.67;23.33
27143;PMS1003;14672;50.250;8.312;2023-03-01T09:37:28;41.75;38.75;20.00
27143;PMS1003;14672;50.250;8.312;2023-03-01T09:39:54;58.00;51.75;23.75
27143;PMS1003;14672;50.250;8.312;2023-03-01T09:42:20;59.00;45.00;23.33
27143;PMS1003;14672;50.250;8.312;2023-03-01T09:44:51;45.00;43.75;22.50
27143;PMS1003;14672;50.250;8.312;2023-03-01T09:47:33;54.75;46.00;27.25
27143;PMS1003;14672;50.250;8.312;2023-03-01T09:55:28;52.25;44.00;24.75
27143;PMS1003;14672;50.250;8.312;2023-03-01T10:02:03;43.75;38.75;21.50
27143;PMS1003;14672;50.250;8.312;2023-03-01T10:07:09;40.75;37.25;19.00
27143;PMS1003;14672;50.250;8.312;2023-03-01T10:10:16;57.50;43.00;19.00
27143;PMS1003;14672;50.250;8.312;2023-03-01T10:12:58;48.00;46.50;23.25
27143;PMS1003;14672;50.250;8.312;2023-03-01T10:15:37;49.25;45.00;22.75
27143;PMS1003;14672;50.250;8.312;2023-03-01T10:18:15;56.25;45.50;22.50
27143;PMS1003;14672;50.250;8.312;2023-03-01T10:23:30;68.00;55.80;26.80
27143;PMS1003;14672;50.250;8.312;2023-03-01T10:26:43;52.50;45.50;21.00
27143;PMS1003;14672;50.250;8.312;2023-03-01T10:29:10;58.75;50.50;24.50
27143;PMS1003;14672;50.250;8.312;2023-03-01T10:31:50;55.40;49.80;27.40
27143;PMS1003;14672;50.250;8.312;2023-03-01T10:34:25;61.60;54.00;27.80
27143;PMS1003;14672;50.250;8.312;2023-03-01T10:36:58;52.60;51.40;27.40
27143;PMS1003;14672;50.250;8.312;2023-03-01T10:39:53;55.50;52.75;29.50
27143;PMS1003;14672;50.250;8.312;2023-03-01T10:42:27;37.50;35.25;16.00
27143;PMS1003;14672;50.250;8.312;2023-03-01T10:44:56;44.00;41.00;20.25
27143;PMS1003;14672;50.250;8.312;2023-03-01T10:47:24;50.75;47.25;21.75
27143;PMS1003;14672;50.250;8.312;2023-03-01T10:49:56;46.25;39.50;20.25
27143;PMS1003;14672;50.250;8.312;2023-03-01T10:52:32;49.00;42.75;19.75
27143;PMS1003;14672;50.250;8.312;2023-03-01T10:57:41;48.75;42.50;19.50
27143;PMS1003;14672;50.250;8.312;2023-03-01T11:03:09;65.60;53.00;28.60
27143;PMS1003;14672;50.250;8.312;2023-03-01T11:05:50;46.75;45.00;22.50
27143;PMS1003;14672;50.250;8.312;2023-03-01T11:08:47;48.25;45.00;22.75
27143;PMS1003;14672;50.250;8.312;2023-03-01T11:11:22;46.25;42.50;25.75
27143;PMS1003;14672;50.250;8.312;2023-03-01T11:13:58;60.40;52.40;28.20
27143;PMS1003;14672;50.250;8.312;2023-03-01T11:16:41;39.50;36.25;17.75
27143;PMS1003;14672;50.250;8.312;2023-03-01T11:19:15;41.25;39.25;21.00
27143;PMS1003;14672;50.250;8.312;2023-03-01T11:24:36;55.75;45.00;20.50
27143;PMS1003;14672;50.250;8.312;2023-03-01T11:32:45;44.00;42.25;21.50
27143;PMS1003;14672;50.250;8.312;2023-03-01T11:35:42;43.25;37.50;19.25
27143;PMS1003;14672;50.250;8.312;2023-03-01T11:38:46;42.00;39.50;20.25
27143;PMS1003;14672;50.250;8.312;2023-03-01T11:41:20;44.00;40.25;19.25
27143;PMS1003;14672;50.250;8.312;2023-03-01T12:06:30;43.75;39.25;19.50
27143;PMS1003;14672;50.250;8.312;2023-03-01T12:10:01;33.75;32.25;17.75
27143;PMS1003;14672;50.250;8.312;2023-03-01T12:12:58;37.25;35.00;19.50
27143;PMS1003;14672;50.250;8.312;2023-03-01T12:15:58;38.00;34.50;16.50
27143;PMS1003;14672;50.250;8.312;2023-03-01T12:30:02;28.50;27.50;14.50
27143;PMS1003;14672;50.250;8.312;2023-03-01T12:38:41;43.50;38.50;19.50
27143;PMS1003;14672;50.250;8.312;2023-03-01T12:49:41;24.25;24.00;13.00
27143;PMS1003;14672;50.250;8.312;2023-03-01T12:58:23;33.00;31.25;16.00
27143;PMS1003;14672;50.250;8.312;2023-03-01T13:01:24;26.50;24.75;13.00
27143;PMS1003;14672;50.250;8.312;2023-03-01T13:20:21;34.25;30.50;14.25
27143;PMS1003;14672;50.250;8.312;2023-03-01T13:29:11;31.75;29.00;15.25
27143;PMS1003;14672;50.250;8.312;2023-03-01T13:46:37;29.25;27.00;14.00
27143;PMS1003;14672;50.250;8.312;2023-03-01T13:49:03;27.50;26.25;12.75
27143;PMS1003;14672;50.250;8.312;2023-03-01T13:51:29;33.33;30.33;16.00
27143;PMS1003;14672;50.250;8.312;2023-03-01T13:53:56;25.00;24.50;13.25
27143;PMS1003;14672;50.250;8.312;2023-03-01T13:56:27;26.50;25.00;13.25
27143;PMS1003;14672;50.250;8.312;2023-03-01T13:59:05;29.25;27.00;14.00
27143;PMS1003;14672;50.250;8.312;2023-03-01T14:01:43;23.50;22.75;11.00
27143;PMS1003;14672;50.250;8.312;2023-03-01T14:04:19;23.00;23.00;13.00
27143;PMS1003;14672;50.250;8.312;2023-03-01T14:06:50;30.25;26.00;14.75
27143;PMS1003;14672;50.250;8.312;2023-03-01T14:09:18;26.50;25.25;12.50
27143;PMS1003;14672;50.250;8.312;2023-03-01T14:11:59;28.75;26.75;14.00
27143;PMS1003;14672;50.250;8.312;2023-03-01T14:17:58;27.75;26.25;14.50
27143;PMS1003;14672;50.250;8.312;2023-03-01T14:20:32;36.00;33.25;16.00
27143;PMS1003;14672;50.250;8.312;2023-03-01T14:23:10;30.50;30.00;16.00
27143;PMS1003;14672;50.250;8.312;2023-03-01T14:25:51;33.25;31.00;14.25
27143;PMS1003;14672;50.250;8.312;2023-03-01T14:30:52;27.75;27.50;15.75
27143;PMS1003;14672;50.250;8.312;2023-03-01T14:35:56;32.00;31.00;16.00
27143;PMS1003;14672;50.250;8.312;2023-03-01T14:38:30;32.25;29.50;15.75
27143;PMS1003;14672;50.250;8.312;2023-03-01T14:41:05;31.75;26.75;14.75
27143;PMS1003;14672;50.250;8.312;2023-03-01T14:43:51;39.25;33.75;16.25
27143;PMS1003;14672;50.250;8.312;2023-03-01T14:46:43;31.75;30.00;14.75
27143;PMS1003;14672;50.250;8.312;2023-03-01T14:49:11;29.00;26.75;14.50
27143;PMS1003;14672;50.250;8.312;2023-03-01T14:51:52;30.75;29.75;15.00
27143;PMS1003;14672;50.250;8.312;2023-03-01T14:54:40;36.75;33.50;15.75
27143;PMS1003;14672;50.250;8.312;2023-03-01T14:59:50;26.75;25.75;15.50
27143;PMS1003;14672;50.250;8.312;2023-03-01T15:02:23;31.50;28.25;15.25
27143;PMS1003;14672;50.250;8.312;2023-03-01T15:04:52;29.50;28.25;15.75
27143;PMS1003;14672;50.250;8.312;2023-03-01T15:07:22;25.25;24.75;16.00
27143;PMS1003;14672;50.250;8.312;2023-03-01T15:09:54;33.75;29.25;15.50
27143;PMS1003;14672;50.250;8.312;2023-03-01T15:14:52;35.50;32.75;16.50
27143;PMS1003;14672;50.250;8.312;2023-03-01T15:17:34;30.50;25.50;14.25
27143;PMS1003;14672;50.250;8.312;2023-03-01T15:20:04;32.75;30.00;17.75
27143;PMS1003;14672;50.250;8.312;2023-03-01T15:22:46;33.75;29.75;15.25
27143;PMS1003;14672;50.250;8.312;2023-03-01T15:25:16;28.75;26.50;14.50
27143;PMS1003;14672;50.250;8.312;2023-03-01T15:27:50;27.50;24.75;14.50
27143;PMS1003;14672;50.250;8.312;2023-03-01T15:30:23;44.25;41.50;21.50
27143;PMS1003;14672;50.250;8.312;2023-03-01T15:39:23;43.75;36.25;18.50
27143;PMS1003;14672;50.250;8.312;2023-03-01T15:42:07;49.75;45.00;23.25
27143;PMS1003;14672;50.250;8.312;2023-03-01T15:45:11;90.40;68.60;41.40
27143;PMS1003;14672;50.250;8.312;2023-03-01T15:47:52;42.00;39.50;22.25
27143;PMS1003;14672;50.250;8.312;2023-03-01T15:50:24;54.20;48.20;26.00
27143;PMS1003;14672;50.250;8.312;2023-03-01T15:52:58;51.60;48.40;28.60
27143;PMS1003;14672;50.250;8.312;2023-03-01T15:55:27;50.50;47.00;25.00
27143;PMS1003;14672;50.250;8.312;2023-03-01T16:00:49;52.00;47.50;24.25
27143;PMS1003;14672;50.250;8.312;2023-03-01T16:03:21;42.25;37.00;17.00
27143;PMS1003;14672;50.250;8.312;2023-03-01T16:05:48;41.75;35.25;18.50
27143;PMS1003;14672;50.250;8.312;2023-03-01T16:08:15;29.75;29.50;14.00
27143;PMS1003;14672;50.250;8.312;2023-03-01T16:10:43;42.00;37.75;16.00
27143;PMS1003;14672;50.250;8.312;2023-03-01T16:13:10;31.50;29.75;16.00
27143;PMS1003;14672;50.250;8.312;2023-03-01T16:15:37;32.25;30.75;13.50
27143;PMS1003;14672;50.250;8.312;2023-03-01T16:18:04;31.25;29.00;15.50
27143;PMS1003;14672;50.250;8.312;2023-03-01T16:20:31;43.75;35.00;14.00
27143;PMS1003;14672;50.250;8.312;2023-03-01T16:22:58;37.75;34.00;18.00
27143;PMS1003;14672;50.250;8.312;2023-03-01T16:25:25;44.75;38.50;18.00
27143;PMS1003;14672;50.250;8.312;2023-03-01T16:27:51;56.33;44.67;23.00
27143;PMS1003;14672;50.250;8.312;2023-03-01T16:30:18;48.00;43.67;20.33
27143;PMS1003;14672;50.250;8.312;2023-03-01T16:32:47;34.25;31.00;15.50
27143;PMS1003;14672;50.250;8.312;2023-03-01T16:35:15;42.00;37.50;15.00
27143;PMS1003;14672;50.250;8.312;2023-03-01T16:37:45;44.00;41.00;20.00
27143;PMS1003;14672;50.250;8.312;2023-03-01T16:42:50;31.75;28.00;12.50
27143;PMS1003;14672;50.250;8.312;2023-03-01T16:45:17;39.25;28.00;14.25